sensor_id;sensor_type;location;lat;lon;timestamp;pressure;altitude;pressure_sealevel;temperature;humidity
30819;BME280;17546;42.674;23.284;2023-01-04T00:01:04;95688.31;;;16.14;45.87
30819;BME280;17546;42.674;23.284;2023-01-04T00:03:30;95685.53;;;15.97;46.35
30819;BME280;17546;42.674;23.284;2023-01-04T00:06:00;95678.19;;;15.88;46.57
30819;BME280;17546;42.674;23.284;2023-01-04T00:08:27;95685.03;;;15.59;47.06
30819;BME280;17546;42.674;23.284;2023-01-04T00:10:52;95677.16;;;15.52;47.07
30819;BME280;17546;42.674;23.284;2023-01-04T00:13:17;95690.34;;;15.52;47.17
30819;BME280;17546;42.674;23.284;2023-01-04T00:15:43;95686.03;;;15.39;47.28
30819;BME280;17546;42.674;23.284;2023-01-04T00:18:08;95684.25;;;15.59;46.63
30819;BME280;17546;42.674;23.284;2023-01-04T00:20:34;95690.38;;;15.74;46.40
30819;BME280;17546;42.674;23.284;2023-01-04T00:22:59;95692.94;;;15.72;46.47
30819;BME280;17546;42.674;23.284;2023-01-04T00:25:25;95685.81;;;15.71;46.31
30819;BME280;17546;42.674;23.284;2023-01-04T00:27:51;95688.56;;;15.94;45.89
30819;BME280;17546;42.674;23.284;2023-01-04T00:30:17;95691.38;;;15.82;45.75
30819;BME280;17546;42.674;23.284;2023-01-04T00:32:43;95697.94;;;15.34;46.91
30819;BME280;17546;42.674;23.284;2023-01-04T00:35:09;95691.59;;;15.56;46.54
30819;BME280;17546;42.674;23.284;2023-01-04T00:37:34;95693.91;;;15.58;46.29
30819;BME280;17546;42.674;23.284;2023-01-04T00:40:00;95697.19;;;15.56;46.32
30819;BME280;17546;42.674;23.284;2023-01-04T00:42:25;95694.94;;;15.94;45.63
30819;BME280;17546;42.674;23.284;2023-01-04T00:44:51;95697.22;;;15.84;45.68
30819;BME280;17546;42.674;23.284;2023-01-04T00:47:16;95691.09;;;16.14;45.20
30819;BME280;17546;42.674;23.284;2023-01-04T00:49:41;95698.97;;;16.21;44.73
30819;BME280;17546;42.674;23.284;2023-01-04T00:52:07;95694.16;;;15.99;45.15
30819;BME280;17546;42.674;23.284;2023-01-04T00:54:32;95685.28;;;15.78;45.53
30819;BME280;17546;42.674;23.284;2023-01-04T00:56:58;95702.56;;;15.99;45.27
30819;BME280;17546;42.674;23.284;2023-01-04T00:59:25;95695.44;;;15.87;45.14
30819;BME280;17546;42.674;23.284;2023-01-04T01:01:51;95695.94;;;15.68;45.84
30819;BME280;17546;42.674;23.284;2023-01-04T01:04:19;95699.25;;;16.01;45.05
30819;BME280;17546;42.674;23.284;2023-01-04T01:06:45;95699.22;;;16.06;44.86
30819;BME280;17546;42.674;23.284;2023-01-04T01:09:11;95698.78;;;15.74;45.45
30819;BME280;17546;42.674;23.284;2023-01-04T01:11:37;95705.34;;;15.88;45.25
30819;BME280;17546;42.674;23.284;2023-01-04T01:14:05;95711.94;;;16.13;44.72
30819;BME280;17546;42.674;23.284;2023-01-04T01:16:31;95716.22;;;16.31;44.28
30819;BME280;17546;42.674;23.284;2023-01-04T01:18:56;95710.81;;;16.56;43.73
30819;BME280;17546;42.674;23.284;2023-01-04T01:21:24;95718.53;;;16.16;44.65
30819;BME280;17546;42.674;23.284;2023-01-04T01:23:51;95721.84;;;15.97;44.85
30819;BME280;17546;42.674;23.284;2023-01-04T01:26:19;95715.53;;;15.85;45.13
30819;BME280;17546;42.674;23.284;2023-01-04T01:28:46;95724.63;;;16.20;44.50
30819;BME280;17546;42.674;23.284;2023-01-04T01:31:19;95710.41;;;15.89;45.17
30819;BME280;17546;42.674;23.284;2023-01-04T01:33:45;95707.16;;;15.74;45.30
30819;BME280;17546;42.674;23.284;2023-01-04T01:36:12;95707.16;;;15.74;45.41
30819;BME280;17546;42.674;23.284;2023-01-04T01:38:38;95711.22;;;15.90;45.17
30819;BME280;17546;42.674;23.284;2023-01-04T01:41:05;95716.78;;;15.73;45.49
30819;BME280;17546;42.674;23.284;2023-01-04T01:46:51;95719.31;;;16.16;44.63
30819;BME280;17546;42.674;23.284;2023-01-04T01:49:33;95716.50;;;16.05;44.83
30819;BME280;17546;42.674;23.284;2023-01-04T01:52:04;95707.09;;;15.57;45.82
30819;BME280;17546;42.674;23.284;2023-01-04T01:54:37;95701.25;;;16.11;44.84
30819;BME280;17546;42.674;23.284;2023-01-04T01:57:17;95701.50;;;16.19;44.50
30819;BME280;17546;42.674;23.284;2023-01-04T01:59:46;95706.63;;;16.04;45.04
30819;BME280;17546;42.674;23.284;2023-01-04T02:02:12;95695.44;;;16.04;44.85
30819;BME280;17546;42.674;23.284;2023-01-04T02:04:42;95702.81;;;16.01;45.02
30819;BME280;17546;42.674;23.284;2023-01-04T02:07:10;95702.31;;;16.03;44.87
30819;BME280;17546;42.674;23.284;2023-01-04T02:09:38;95699.97;;;15.39;46.25
30819;BME280;17546;42.674;23.284;2023-01-04T02:12:04;95692.38;;;16.13;44.76
30819;BME280;17546;42.674;23.284;2023-01-04T02:14:29;95690.81;;;16.23;44.25
30819;BME280;17546;42.674;23.284;2023-01-04T02:27:54;95682.97;;;15.60;45.56
30819;BME280;17546;42.674;23.284;2023-01-04T02:36:25;95691.06;;;15.29;46.72
30819;BME280;17546;42.674;23.284;2023-01-04T02:41:57;95685.50;;;15.29;46.76
30819;BME280;17546;42.674;23.284;2023-01-04T02:44:47;95685.44;;;15.01;47.38
30819;BME280;17546;42.674;23.284;2023-01-04T02:47:36;95681.72;;;15.33;46.85
30819;BME280;17546;42.674;23.284;2023-01-04T02:53:00;95684.13;;;14.80;47.91
30819;BME280;17546;42.674;23.284;2023-01-04T03:04:16;95679.75;;;14.19;49.55
30819;BME280;17546;42.674;23.284;2023-01-04T03:10:09;95682.91;;;14.38;48.87
30819;BME280;17546;42.674;23.284;2023-01-04T03:12:43;95672.44;;;14.76;48.12
30819;BME280;17546;42.674;23.284;2023-01-04T03:15:15;95677.34;;;14.38;48.99
30819;BME280;17546;42.674;23.284;2023-01-04T03:17:54;95669.78;;;14.06;49.75
30819;BME280;17546;42.674;23.284;2023-01-04T03:20:22;95689.25;;;14.38;48.87
30819;BME280;17546;42.674;23.284;2023-01-04T03:22:58;95683.88;;;14.29;49.34
30819;BME280;17546;42.674;23.284;2023-01-04T03:25:47;95691.50;;;14.88;47.91
30819;BME280;17546;42.674;23.284;2023-01-04T03:28:35;95694.19;;;14.60;48.75
30819;BME280;17546;42.674;23.284;2023-01-04T03:31:30;95686.00;;;14.51;48.90
30819;BME280;17546;42.674;23.284;2023-01-04T03:34:16;95690.72;;;13.91;50.43
30819;BME280;17546;42.674;23.284;2023-01-04T03:39:59;95706.38;;;13.82;50.61
30819;BME280;17546;42.674;23.284;2023-01-04T03:43:11;95691.63;;;13.44;51.45
30819;BME280;17546;42.674;23.284;2023-01-04T03:46:08;95692.94;;;14.18;49.77
30819;BME280;17546;42.674;23.284;2023-01-04T03:51:51;95689.88;;;14.16;49.64
30819;BME280;17546;42.674;23.284;2023-01-04T03:54:38;95690.88;;;14.13;49.72
30819;BME280;17546;42.674;23.284;2023-01-04T03:57:06;95694.25;;;14.29;49.51
30819;BME280;17546;42.674;23.284;2023-01-04T03:59:37;95700.28;;;14.70;48.50
30819;BME280;17546;42.674;23.284;2023-01-04T04:02:04;95699.69;;;14.49;48.97
30819;BME280;17546;42.674;23.284;2023-01-04T04:04:32;95701.09;;;14.71;48.30
30819;BME280;17546;42.674;23.284;2023-01-04T04:07:16;95697.34;;;14.36;48.84
30819;BME280;17546;42.674;23.284;2023-01-04T04:10:00;95711.38;;;14.53;48.75
30819;BME280;17546;42.674;23.284;2023-01-04T04:12:25;95707.50;;;14.02;49.95
30819;BME280;17546;42.674;23.284;2023-01-04T04:14:51;95718.47;;;14.11;49.70
30819;BME280;17546;42.674;23.284;2023-01-04T04:17:16;95712.22;;;14.27;49.63
30819;BME280;17546;42.674;23.284;2023-01-04T04:19:42;95707.94;;;14.26;49.30
30819;BME280;17546;42.674;23.284;2023-01-04T04:22:07;95709.75;;;14.35;49.05
30819;BME280;17546;42.674;23.284;2023-01-04T04:24:32;95709.78;;;14.41;48.83
30819;BME280;17546;42.674;23.284;2023-01-04T04:26:58;95716.78;;;14.25;49.25
30819;BME280;17546;42.674;23.284;2023-01-04T04:29:23;95714.06;;;14.36;48.87
30819;BME280;17546;42.674;23.284;2023-01-04T04:31:49;95709.91;;;14.20;49.10
30819;BME280;17546;42.674;23.284;2023-01-04T04:34:15;95715.00;;;13.84;50.21
30819;BME280;17546;42.674;23.284;2023-01-04T04:36:40;95720.03;;;14.18;49.26
30819;BME280;17546;42.674;23.284;2023-01-04T04:39:05;95709.63;;;13.49;50.83
30819;BME280;17546;42.674;23.284;2023-01-04T04:41:31;95721.94;;;13.37;51.39
30819;BME280;17546;42.674;23.284;2023-01-04T04:44:03;95718.19;;;13.72;50.64
30819;BME280;17546;42.674;23.284;2023-01-04T04:46:29;95717.09;;;13.95;49.92
30819;BME280;17546;42.674;23.284;2023-01-04T04:48:55;95726.94;;;13.59;50.43
30819;BME280;17546;42.674;23.284;2023-01-04T04:51:21;95731.06;;;13.17;51.79
30819;BME280;17546;42.674;23.284;2023-01-04T04:53:46;95720.91;;;13.66;50.90
30819;BME280;17546;42.674;23.284;2023-01-04T04:56:12;95725.91;;;13.30;51.85
30819;BME280;17546;42.674;23.284;2023-01-04T04:58:39;95717.19;;;12.96;52.52
30819;BME280;17546;42.674;23.284;2023-01-04T05:01:04;95721.72;;;13.40;51.72
30819;BME280;17546;42.674;23.284;2023-01-04T05:03:30;95715.44;;;13.46;51.39
30819;BME280;17546;42.674;23.284;2023-01-04T05:05:55;95718.41;;;12.90;52.89
30819;BME280;17546;42.674;23.284;2023-01-04T05:08:21;95728.41;;;12.81;53.32
30819;BME280;17546;42.674;23.284;2023-01-04T05:10:46;95728.75;;;12.69;53.90
30819;BME280;17546;42.674;23.284;2023-01-04T05:13:12;95735.91;;;12.55;54.22
30819;BME280;17546;42.674;23.284;2023-01-04T05:15:40;95740.56;;;12.64;53.84
30819;BME280;17546;42.674;23.284;2023-01-04T05:18:07;95738.94;;;12.98;53.13
30819;BME280;17546;42.674;23.284;2023-01-04T05:20:33;95734.75;;;13.29;52.19
30819;BME280;17546;42.674;23.284;2023-01-04T05:22:59;95739.72;;;13.45;51.70
30819;BME280;17546;42.674;23.284;2023-01-04T05:25:25;95741.94;;;13.99;50.43
30819;BME280;17546;42.674;23.284;2023-01-04T05:27:50;95737.44;;;13.43;51.53
30819;BME280;17546;42.674;23.284;2023-01-04T05:30:16;95740.13;;;13.12;52.43
30819;BME280;17546;42.674;23.284;2023-01-04T05:33:01;95738.25;;;13.50;51.33
30819;BME280;17546;42.674;23.284;2023-01-04T05:35:27;95742.88;;;13.32;51.85
30819;BME280;17546;42.674;23.284;2023-01-04T05:37:52;95734.44;;;13.47;51.17
30819;BME280;17546;42.674;23.284;2023-01-04T05:40:18;95749.38;;;13.50;51.24
30819;BME280;17546;42.674;23.284;2023-01-04T05:42:43;95753.44;;;13.80;50.49
30819;BME280;17546;42.674;23.284;2023-01-04T05:45:09;95753.53;;;13.92;49.98
30819;BME280;17546;42.674;23.284;2023-01-04T05:47:35;95758.19;;;14.06;49.68
30819;BME280;17546;42.674;23.284;2023-01-04T05:50:01;95755.72;;;13.82;49.94
30819;BME280;17546;42.674;23.284;2023-01-04T05:52:27;95761.06;;;14.17;49.19
30819;BME280;17546;42.674;23.284;2023-01-04T05:54:52;95755.13;;;14.04;49.37
30819;BME280;17546;42.674;23.284;2023-01-04T05:57:18;95754.84;;;13.96;49.56
30819;BME280;17546;42.674;23.284;2023-01-04T05:59:44;95754.78;;;13.91;49.41
30819;BME280;17546;42.674;23.284;2023-01-04T06:02:21;95758.34;;;14.29;48.95
30819;BME280;17546;42.674;23.284;2023-01-04T06:04:46;95746.75;;;13.98;49.30
30819;BME280;17546;42.674;23.284;2023-01-04T06:07:13;95763.84;;;14.17;48.96
30819;BME280;17546;42.674;23.284;2023-01-04T06:09:38;95771.22;;;14.20;48.87
30819;BME280;17546;42.674;23.284;2023-01-04T06:12:04;95763.56;;;14.53;47.92
30819;BME280;17546;42.674;23.284;2023-01-04T06:14:30;95775.44;;;14.42;48.03
30819;BME280;17546;42.674;23.284;2023-01-04T06:16:55;95768.47;;;14.63;47.42
30819;BME280;17546;42.674;23.284;2023-01-04T06:19:22;95763.06;;;14.54;47.50
30819;BME280;17546;42.674;23.284;2023-01-04T06:21:47;95771.25;;;14.63;47.28
30819;BME280;17546;42.674;23.284;2023-01-04T06:24:13;95776.50;;;13.81;48.86
30819;BME280;17546;42.674;23.284;2023-01-04T06:26:38;95785.81;;;13.78;49.17
30819;BME280;17546;42.674;23.284;2023-01-04T06:29:04;95786.50;;;13.99;48.76
30819;BME280;17546;42.674;23.284;2023-01-04T06:31:29;95784.34;;;13.82;49.04
30819;BME280;17546;42.674;23.284;2023-01-04T06:33:55;95781.97;;;13.43;50.06
30819;BME280;17546;42.674;23.284;2023-01-04T06:36:21;95777.22;;;13.76;49.37
30819;BME280;17546;42.674;23.284;2023-01-04T06:38:49;95780.75;;;14.08;48.31
30819;BME280;17546;42.674;23.284;2023-01-04T06:41:15;95786.75;;;14.33;47.94
30819;BME280;17546;42.674;23.284;2023-01-04T06:43:41;95782.66;;;14.22;48.07
30819;BME280;17546;42.674;23.284;2023-01-04T06:46:06;95781.50;;;13.77;49.08
30819;BME280;17546;42.674;23.284;2023-01-04T06:48:32;95790.31;;;13.43;50.10
30819;BME280;17546;42.674;23.284;2023-01-04T06:50:57;95792.66;;;13.51;49.71
30819;BME280;17546;42.674;23.284;2023-01-04T06:53:22;95794.22;;;13.11;50.77
30819;BME280;17546;42.674;23.284;2023-01-04T06:55:48;95788.09;;;13.74;49.42
30819;BME280;17546;42.674;23.284;2023-01-04T06:58:13;95794.09;;;13.40;49.60
30819;BME280;17546;42.674;23.284;2023-01-04T07:00:39;95788.28;;;13.70;49.23
30819;BME280;17546;42.674;23.284;2023-01-04T07:03:04;95790.69;;;13.83;48.94
30819;BME280;17546;42.674;23.284;2023-01-04T07:05:30;95789.81;;;13.71;49.15
30819;BME280;17546;42.674;23.284;2023-01-04T07:07:58;95795.59;;;13.94;48.50
30819;BME280;17546;42.674;23.284;2023-01-04T07:10:24;95794.66;;;14.02;48.35
30819;BME280;17546;42.674;23.284;2023-01-04T07:12:49;95799.03;;;13.83;48.88
30819;BME280;17546;42.674;23.284;2023-01-04T07:15:15;95806.31;;;14.06;48.52
30819;BME280;17546;42.674;23.284;2023-01-04T07:17:40;95807.75;;;13.96;48.25
30819;BME280;17546;42.674;23.284;2023-01-04T07:20:06;95811.53;;;14.25;48.00
30819;BME280;17546;42.674;23.284;2023-01-04T07:22:33;95813.50;;;13.87;48.38
30819;BME280;17546;42.674;23.284;2023-01-04T07:24:58;95812.47;;;13.84;49.00
30819;BME280;17546;42.674;23.284;2023-01-04T07:27:24;95821.06;;;14.13;48.12
30819;BME280;17546;42.674;23.284;2023-01-04T07:29:49;95822.34;;;14.17;48.08
30819;BME280;17546;42.674;23.284;2023-01-04T07:32:14;95822.63;;;14.51;47.24
30819;BME280;17546;42.674;23.284;2023-01-04T07:34:40;95825.97;;;14.55;47.57
30819;BME280;17546;42.674;23.284;2023-01-04T07:37:07;95821.66;;;14.22;48.10
30819;BME280;17546;42.674;23.284;2023-01-04T07:39:33;95820.53;;;14.46;47.47
30819;BME280;17546;42.674;23.284;2023-01-04T07:41:59;95807.63;;;14.11;47.91
30819;BME280;17546;42.674;23.284;2023-01-04T07:44:24;95816.16;;;14.34;47.65
30819;BME280;17546;42.674;23.284;2023-01-04T07:46:51;95822.28;;;14.75;46.93
30819;BME280;17546;42.674;23.284;2023-01-04T07:49:17;95815.22;;;14.11;48.08
30819;BME280;17546;42.674;23.284;2023-01-04T07:51:42;95825.78;;;14.64;47.04
30819;BME280;17546;42.674;23.284;2023-01-04T07:54:09;95809.63;;;14.42;47.54
30819;BME280;17546;42.674;23.284;2023-01-04T07:56:35;95823.25;;;14.35;47.34
30819;BME280;17546;42.674;23.284;2023-01-04T07:59:00;95822.09;;;14.15;48.14
30819;BME280;17546;42.674;23.284;2023-01-04T08:01:26;95822.28;;;14.38;47.87
30819;BME280;17546;42.674;23.284;2023-01-04T08:03:52;95824.25;;;14.32;48.02
30819;BME280;17546;42.674;23.284;2023-01-04T08:06:20;95820.56;;;13.82;48.81
30819;BME280;17546;42.674;23.284;2023-01-04T08:08:46;95827.53;;;14.30;47.77
30819;BME280;17546;42.674;23.284;2023-01-04T08:11:16;95827.81;;;13.28;49.92
30819;BME280;17546;42.674;23.284;2023-01-04T08:13:43;95825.88;;;14.12;47.95
30819;BME280;17546;42.674;23.284;2023-01-04T08:16:19;95833.72;;;13.82;48.47
30819;BME280;17546;42.674;23.284;2023-01-04T08:18:52;95831.97;;;13.84;48.32
30819;BME280;17546;42.674;23.284;2023-01-04T08:21:18;95829.94;;;13.85;48.39
30819;BME280;17546;42.674;23.284;2023-01-04T08:23:43;95825.47;;;14.25;47.60
30819;BME280;17546;42.674;23.284;2023-01-04T08:26:12;95830.72;;;14.17;47.70
30819;BME280;17546;42.674;23.284;2023-01-04T08:28:38;95834.78;;;13.64;48.88
30819;BME280;17546;42.674;23.284;2023-01-04T08:31:09;95834.09;;;13.69;48.76
30819;BME280;17546;42.674;23.284;2023-01-04T08:33:36;95835.78;;;13.61;49.07
30819;BME280;17546;42.674;23.284;2023-01-04T08:38:34;95832.06;;;13.43;49.61
30819;BME280;17546;42.674;23.284;2023-01-04T08:41:00;95837.41;;;13.73;49.21
30819;BME280;17546;42.674;23.284;2023-01-04T08:43:25;95831.56;;;13.97;48.67
30819;BME280;17546;42.674;23.284;2023-01-04T08:45:50;95825.59;;;13.78;48.93
30819;BME280;17546;42.674;23.284;2023-01-04T08:48:16;95832.00;;;14.16;48.07
30819;BME280;17546;42.674;23.284;2023-01-04T08:50:41;95831.53;;;13.92;48.68
30819;BME280;17546;42.674;23.284;2023-01-04T08:53:07;95833.50;;;13.59;49.16
30819;BME280;17546;42.674;23.284;2023-01-04T08:55:32;95829.75;;;13.62;49.15
30819;BME280;17546;42.674;23.284;2023-01-04T08:58:01;95831.38;;;13.28;49.70
30819;BME280;17546;42.674;23.284;2023-01-04T09:00:27;95827.38;;;12.73;51.16
30819;BME280;17546;42.674;23.284;2023-01-04T09:02:53;95836.47;;;13.56;49.34
30819;BME280;17546;42.674;23.284;2023-01-04T09:05:18;95829.13;;;13.79;48.70
30819;BME280;17546;42.674;23.284;2023-01-04T09:07:43;95835.47;;;13.79;48.75
30819;BME280;17546;42.674;23.284;2023-01-04T09:10:09;95833.28;;;13.63;48.84
30819;BME280;17546;42.674;23.284;2023-01-04T09:12:35;95828.72;;;13.19;49.67
30819;BME280;17546;42.674;23.284;2023-01-04T09:15:00;95814.91;;;13.51;49.03
30819;BME280;17546;42.674;23.284;2023-01-04T09:17:26;95830.19;;;13.35;49.92
30819;BME280;17546;42.674;23.284;2023-01-04T09:19:51;95833.78;;;13.00;50.39
30819;BME280;17546;42.674;23.284;2023-01-04T09:22:16;95833.16;;;13.11;50.23
30819;BME280;17546;42.674;23.284;2023-01-04T09:24:42;95821.47;;;13.07;50.22
30819;BME280;17546;42.674;23.284;2023-01-04T09:27:07;95821.19;;;13.05;50.39
30819;BME280;17546;42.674;23.284;2023-01-04T09:29:33;95813.00;;;12.75;50.61
30819;BME280;17546;42.674;23.284;2023-01-04T09:31:58;95824.41;;;13.18;49.62
30819;BME280;17546;42.674;23.284;2023-01-04T09:34:23;95817.44;;;13.49;48.58
30819;BME280;17546;42.674;23.284;2023-01-04T09:36:49;95820.06;;;13.58;48.68
30819;BME280;17546;42.674;23.284;2023-01-04T09:39:15;95817.50;;;13.13;49.41
30819;BME280;17546;42.674;23.284;2023-01-04T09:41:57;95822.56;;;13.30;49.20
30819;BME280;17546;42.674;23.284;2023-01-04T09:47:03;95825.66;;;13.37;48.62
30819;BME280;17546;42.674;23.284;2023-01-04T09:49:44;95822.59;;;13.15;49.57
30819;BME280;17546;42.674;23.284;2023-01-04T09:57:50;95819.19;;;13.46;48.87
30819;BME280;17546;42.674;23.284;2023-01-04T10:00:22;95812.09;;;13.04;49.72
30819;BME280;17546;42.674;23.284;2023-01-04T10:05:39;95815.44;;;12.88;50.59
30819;BME280;17546;42.674;23.284;2023-01-04T10:08:16;95807.03;;;12.82;50.66
30819;BME280;17546;42.674;23.284;2023-01-04T10:16:12;95810.63;;;13.29;49.16
30819;BME280;17546;42.674;23.284;2023-01-04T10:18:45;95819.66;;;13.24;49.28
30819;BME280;17546;42.674;23.284;2023-01-04T10:27:06;95804.22;;;13.02;50.13
30819;BME280;17546;42.674;23.284;2023-01-04T10:29:47;95813.88;;;13.48;49.20
30819;BME280;17546;42.674;23.284;2023-01-04T10:32:33;95821.88;;;13.61;49.02
30819;BME280;17546;42.674;23.284;2023-01-04T10:35:01;95811.38;;;13.76;48.58
30819;BME280;17546;42.674;23.284;2023-01-04T10:37:37;95804.91;;;13.91;48.28
30819;BME280;17546;42.674;23.284;2023-01-04T10:40:11;95802.47;;;13.72;48.62
30819;BME280;17546;42.674;23.284;2023-01-04T10:43:05;95807.81;;;14.34;47.27
30819;BME280;17546;42.674;23.284;2023-01-04T10:48:36;95810.13;;;13.77;48.54
30819;BME280;17546;42.674;23.284;2023-01-04T10:51:05;95815.69;;;13.77;48.75
30819;BME280;17546;42.674;23.284;2023-01-04T10:54:12;95811.72;;;14.16;48.04
30819;BME280;17546;42.674;23.284;2023-01-04T10:56:59;95801.94;;;13.42;49.59
30819;BME280;17546;42.674;23.284;2023-01-04T10:59:45;95799.44;;;12.82;50.87
30819;BME280;17546;42.674;23.284;2023-01-04T11:10:19;95796.81;;;13.14;50.43
30819;BME280;17546;42.674;23.284;2023-01-04T11:12:48;95795.13;;;12.81;50.98
30819;BME280;17546;42.674;23.284;2023-01-04T11:15:13;95789.53;;;12.61;51.67
30819;BME280;17546;42.674;23.284;2023-01-04T11:17:40;95796.16;;;12.64;51.55
30819;BME280;17546;42.674;23.284;2023-01-04T11:20:07;95794.41;;;13.07;50.55
30819;BME280;17546;42.674;23.284;2023-01-04T11:22:38;95786.72;;;12.76;51.19
30819;BME280;17546;42.674;23.284;2023-01-04T11:25:09;95786.78;;;13.69;49.10
30819;BME280;17546;42.674;23.284;2023-01-04T11:27:48;95774.06;;;13.62;49.16
30819;BME280;17546;42.674;23.284;2023-01-04T11:30:23;95777.44;;;14.04;48.14
30819;BME280;17546;42.674;23.284;2023-01-04T11:33:00;95769.97;;;13.90;48.46
30819;BME280;17546;42.674;23.284;2023-01-04T11:36:03;95777.34;;;13.93;48.03
30819;BME280;17546;42.674;23.284;2023-01-04T11:38:29;95769.66;;;13.82;48.51
30819;BME280;17546;42.674;23.284;2023-01-04T11:41:23;95763.22;;;14.02;48.10
30819;BME280;17546;42.674;23.284;2023-01-04T11:44:00;95766.88;;;14.14;47.58
30819;BME280;17546;42.674;23.284;2023-01-04T11:46:27;95761.66;;;14.27;47.30
30819;BME280;17546;42.674;23.284;2023-01-04T11:48:54;95752.81;;;13.97;48.11
30819;BME280;17546;42.674;23.284;2023-01-04T11:56:29;95741.09;;;14.67;46.20
30819;BME280;17546;42.674;23.284;2023-01-04T12:01:46;95740.44;;;14.84;46.04
30819;BME280;17546;42.674;23.284;2023-01-04T12:04:26;95747.56;;;14.91;45.80
30819;BME280;17546;42.674;23.284;2023-01-04T12:06:57;95738.16;;;14.88;45.66
30819;BME280;17546;42.674;23.284;2023-01-04T12:09:24;95739.38;;;14.76;46.29
30819;BME280;17546;42.674;23.284;2023-01-04T12:11:54;95742.34;;;14.61;46.67
30819;BME280;17546;42.674;23.284;2023-01-04T12:14:28;95745.25;;;14.89;45.99
30819;BME280;17546;42.674;23.284;2023-01-04T12:17:09;95746.06;;;14.95;45.70
30819;BME280;17546;42.674;23.284;2023-01-04T12:19:39;95744.84;;;15.13;45.43
30819;BME280;17546;42.674;23.284;2023-01-04T12:24:58;95746.41;;;15.31;45.02
30819;BME280;17546;42.674;23.284;2023-01-04T12:27:25;95736.00;;;15.26;45.11
30819;BME280;17546;42.674;23.284;2023-01-04T12:29:52;95732.69;;;15.22;45.12
30819;BME280;17546;42.674;23.284;2023-01-04T12:34:45;95728.63;;;15.28;45.28
30819;BME280;17546;42.674;23.284;2023-01-04T12:45:44;95732.34;;;14.86;46.27
30819;BME280;17546;42.674;23.284;2023-01-04T12:51:18;95724.34;;;15.33;45.06
30819;BME280;17546;42.674;23.284;2023-01-04T12:56:16;95720.16;;;14.89;45.87
30819;BME280;17546;42.674;23.284;2023-01-04T12:59:07;95721.47;;;14.99;45.49
30819;BME280;17546;42.674;23.284;2023-01-04T13:01:34;95720.50;;;15.19;45.34
30819;BME280;17546;42.674;23.284;2023-01-04T13:04:03;95723.56;;;15.21;45.46
30819;BME280;17546;42.674;23.284;2023-01-04T13:06:46;95717.75;;;15.42;44.83
30819;BME280;17546;42.674;23.284;2023-01-04T13:09:20;95719.00;;;15.29;45.12
30819;BME280;17546;42.674;23.284;2023-01-04T13:14:53;95712.88;;;15.25;44.77
30819;BME280;17546;42.674;23.284;2023-01-04T13:17:25;95720.28;;;15.51;44.63
30819;BME280;17546;42.674;23.284;2023-01-04T13:19:52;95718.78;;;15.67;44.30
30819;BME280;17546;42.674;23.284;2023-01-04T13:22:19;95726.91;;;15.65;44.10
30819;BME280;17546;42.674;23.284;2023-01-04T13:24:46;95725.78;;;15.00;45.38
30819;BME280;17546;42.674;23.284;2023-01-04T13:27:16;95730.97;;;14.64;46.20
30819;BME280;17546;42.674;23.284;2023-01-04T13:29:42;95724.59;;;14.58;46.28
30819;BME280;17546;42.674;23.284;2023-01-04T13:32:29;95725.66;;;14.66;46.40
30819;BME280;17546;42.674;23.284;2023-01-04T13:35:12;95727.06;;;14.99;45.62
30819;BME280;17546;42.674;23.284;2023-01-04T13:37:44;95725.63;;;15.49;44.71
30819;BME280;17546;42.674;23.284;2023-01-04T13:48:14;95727.81;;;15.05;45.77
30819;BME280;17546;42.674;23.284;2023-01-04T13:50:44;95729.06;;;14.99;45.74
30819;BME280;17546;42.674;23.284;2023-01-04T13:53:21;95734.31;;;14.80;46.30
30819;BME280;17546;42.674;23.284;2023-01-04T13:55:58;95737.28;;;15.31;45.26
30819;BME280;17546;42.674;23.284;2023-01-04T13:58:29;95739.31;;;15.36;45.13
30819;BME280;17546;42.674;23.284;2023-01-04T14:01:13;95734.03;;;15.55;44.72
30819;BME280;17546;42.674;23.284;2023-01-04T14:03:45;95728.22;;;15.75;44.34
30819;BME280;17546;42.674;23.284;2023-01-04T14:14:19;95737.63;;;15.83;44.09
30819;BME280;17546;42.674;23.284;2023-01-04T14:16:46;95728.97;;;16.21;43.36
30819;BME280;17546;42.674;23.284;2023-01-04T14:22:32;95742.69;;;16.02;43.99
30819;BME280;17546;42.674;23.284;2023-01-04T14:30:55;95739.13;;;14.74;47.01
30819;BME280;17546;42.674;23.284;2023-01-04T14:39:27;95734.84;;;14.84;46.67
30819;BME280;17546;42.674;23.284;2023-01-04T14:44:18;95729.88;;;15.27;45.84
30819;BME280;17546;42.674;23.284;2023-01-04T14:46:49;95734.94;;;15.06;46.27
30819;BME280;17546;42.674;23.284;2023-01-04T14:49:15;95736.19;;;15.00;46.24
30819;BME280;17546;42.674;23.284;2023-01-04T14:51:43;95734.59;;;14.87;46.57
30819;BME280;17546;42.674;23.284;2023-01-04T14:54:14;95743.84;;;14.56;47.26
30819;BME280;17546;42.674;23.284;2023-01-04T14:56:40;95733.19;;;14.55;47.27
30819;BME280;17546;42.674;23.284;2023-01-04T14:59:07;95735.09;;;14.37;47.79
30819;BME280;17546;42.674;23.284;2023-01-04T15:01:33;95735.50;;;14.19;48.11
30819;BME280;17546;42.674;23.284;2023-01-04T15:04:00;95743.84;;;14.56;47.29
30819;BME280;17546;42.674;23.284;2023-01-04T15:06:26;95738.59;;;14.70;47.17
30819;BME280;17546;42.674;23.284;2023-01-04T15:08:52;95737.22;;;15.08;46.25
30819;BME280;17546;42.674;23.284;2023-01-04T15:11:18;95737.16;;;14.42;47.35
30819;BME280;17546;42.674;23.284;2023-01-04T15:13:43;95736.66;;;13.69;49.31
30819;BME280;17546;42.674;23.284;2023-01-04T15:16:12;95734.88;;;14.41;47.71
30819;BME280;17546;42.674;23.284;2023-01-04T15:18:38;95735.44;;;13.76;49.26
30819;BME280;17546;42.674;23.284;2023-01-04T15:21:04;95746.22;;;13.94;49.04
30819;BME280;17546;42.674;23.284;2023-01-04T15:23:29;95742.50;;;14.09;48.35
30819;BME280;17546;42.674;23.284;2023-01-04T15:25:55;95752.00;;;14.22;48.24